sensor_id;sensor_type;location;lat;lon;timestamp;temperature;humidity
45108;DHT22;30869;51.188;6.556;2022-10-19T00:20:06;13.80;99.90
45108;DHT22;30869;51.188;6.556;2022-10-19T00:23:11;13.80;99.90
45108;DHT22;30869;51.188;6.556;2022-10-19T05:02:28;11.90;99.90
45108;DHT22;30869;51.188;6.556;2022-10-19T05:04:54;11.90;99.90
45108;DHT22;30869;51.188;6.556;2022-10-19T05:07:20;12.20;99.90
45108;DHT22;30869;51.188;6.556;2022-10-19T05:09:46;12.40;99.90
45108;DHT22;30869;51.188;6.556;2022-10-19T05:12:12;12.40;99.90
45108;DHT22;30869;51.188;6.556;2022-10-19T05:14:38;12.40;99.90
45108;DHT22;30869;51.188;6.556;2022-10-19T05:17:03;12.40;99.90
45108;DHT22;30869;51.188;6.556;2022-10-19T05:19:29;12.30;99.90
45108;DHT22;30869;51.188;6.556;2022-10-19T05:21:56;12.30;99.90
45108;DHT22;30869;51.188;6.556;2022-10-19T05:24:22;12.20;99.90
45108;DHT22;30869;51.188;6.556;2022-10-19T05:26:48;12.20;99.90
45108;DHT22;30869;51.188;6.556;2022-10-19T05:29:14;12.00;99.90
45108;DHT22;30869;51.188;6.556;2022-10-19T05:31:40;12.00;99.90
45108;DHT22;30869;51.188;6.556;2022-10-19T05:34:07;12.10;99.90
45108;DHT22;30869;51.188;6.556;2022-10-19T05:36:37;12.30;99.90
45108;DHT22;30869;51.188;6.556;2022-10-19T05:39:14;12.30;99.90
45108;DHT22;30869;51.188;6.556;2022-10-19T05:41:45;12.20;99.90
45108;DHT22;30869;51.188;6.556;2022-10-19T05:44:39;12.20;99.90
45108;DHT22;30869;51.188;6.556;2022-10-19T08:33:07;12.60;99.90
45108;DHT22;30869;51.188;6.556;2022-10-19T08:49:25;12.70;99.90
45108;DHT22;30869;51.188;6.556;2022-10-19T08:52:21;12.50;99.90
45108;DHT22;30869;51.188;6.556;2022-10-19T08:55:06;12.40;99.90
45108;DHT22;30869;51.188;6.556;2022-10-19T09:00:31;12.30;99.90
45108;DHT22;30869;51.188;6.556;2022-10-19T09:03:22;12.30;99.90
45108;DHT22;30869;51.188;6.556;2022-10-19T09:05:52;12.10;99.90
45108;DHT22;30869;51.188;6.556;2022-10-19T09:08:21;12.40;99.90
45108;DHT22;30869;51.188;6.556;2022-10-19T09:10:50;12.20;99.90
45108;DHT22;30869;51.188;6.556;2022-10-19T09:16:02;12.30;99.90
45108;DHT22;30869;51.188;6.556;2022-10-19T09:18:31;12.30;99.90
45108;DHT22;30869;51.188;6.556;2022-10-19T09:21:50;12.30;99.90
45108;DHT22;30869;51.188;6.556;2022-10-19T09:24:38;12.50;99.90
45108;DHT22;30869;51.188;6.556;2022-10-19T09:27:27;12.30;99.90
45108;DHT22;30869;51.188;6.556;2022-10-19T09:30:01;12.30;99.90
45108;DHT22;30869;51.188;6.556;2022-10-19T09:32:44;12.20;99.90
45108;DHT22;30869;51.188;6.556;2022-10-19T09:35:37;12.10;99.90
45108;DHT22;30869;51.188;6.556;2022-10-19T09:38:28;12.30;99.90
45108;DHT22;30869;51.188;6.556;2022-10-19T09:41:21;12.30;99.90
45108;DHT22;30869;51.188;6.556;2022-10-19T09:44:06;12.30;99.90
45108;DHT22;30869;51.188;6.556;2022-10-19T09:47:15;12.30;99.90
45108;DHT22;30869;51.188;6.556;2022-10-19T09:49:50;12.30;99.90
45108;DHT22;30869;51.188;6.556;2022-10-19T09:52:39;12.30;99.90
45108;DHT22;30869;51.188;6.556;2022-10-19T09:58:14;12.40;99.90
45108;DHT22;30869;51.188;6.556;2022-10-19T10:00:56;12.40;99.90
45108;DHT22;30869;51.188;6.556;2022-10-19T10:03:35;12.50;99.90
45108;DHT22;30869;51.188;6.556;2022-10-19T10:06:30;12.50;99.90
45108;DHT22;30869;51.188;6.556;2022-10-19T10:09:37;12.50;99.90
45108;DHT22;30869;51.188;6.556;2022-10-19T10:15:44;12.60;99.90
45108;DHT22;30869;51.188;6.556;2022-10-19T10:18:57;12.50;99.90
45108;DHT22;30869;51.188;6.556;2022-10-19T10:22:11;12.50;99.90
45108;DHT22;30869;51.188;6.556;2022-10-19T10:25:35;12.60;99.90
45108;DHT22;30869;51.188;6.556;2022-10-19T10:28:26;12.50;99.90
45108;DHT22;30869;51.188;6.556;2022-10-19T10:38:22;12.60;99.90
45108;DHT22;30869;51.188;6.556;2022-10-19T10:41:16;12.60;99.90
45108;DHT22;30869;51.188;6.556;2022-10-19T10:44:01;12.70;99.90
45108;DHT22;30869;51.188;6.556;2022-10-19T10:47:25;12.70;99.90
45108;DHT22;30869;51.188;6.556;2022-10-19T10:53:47;12.60;99.90
45108;DHT22;30869;51.188;6.556;2022-10-19T10:56:53;12.70;99.90
45108;DHT22;30869;51.188;6.556;2022-10-19T11:03:24;12.80;99.90
45108;DHT22;30869;51.188;6.556;2022-10-19T11:06:03;12.90;99.90
45108;DHT22;30869;51.188;6.556;2022-10-19T11:09:36;12.80;99.90
45108;DHT22;30869;51.188;6.556;2022-10-19T11:19:46;12.90;99.90
45108;DHT22;30869;51.188;6.556;2022-10-19T11:39:11;13.20;99.90
45108;DHT22;30869;51.188;6.556;2022-10-19T12:01:36;13.50;99.90
45108;DHT22;30869;51.188;6.556;2022-10-19T12:14:08;13.80;99.90
45108;DHT22;30869;51.188;6.556;2022-10-19T12:16:43;13.80;99.90
45108;DHT22;30869;51.188;6.556;2022-10-19T12:22:28;13.60;99.90
45108;DHT22;30869;51.188;6.556;2022-10-19T12:25:17;13.70;99.90
45108;DHT22;30869;51.188;6.556;2022-10-19T12:27:44;13.60;99.90
45108;DHT22;30869;51.188;6.556;2022-10-19T12:30:16;13.80;99.90
45108;DHT22;30869;51.188;6.556;2022-10-19T12:38:55;13.70;99.90
45108;DHT22;30869;51.188;6.556;2022-10-19T12:44:34;13.80;99.90
45108;DHT22;30869;51.188;6.556;2022-10-19T12:47:18;13.80;99.90
45108;DHT22;30869;51.188;6.556;2022-10-19T12:49:50;13.70;99.90
45108;DHT22;30869;51.188;6.556;2022-10-19T12:55:26;13.90;99.90
45108;DHT22;30869;51.188;6.556;2022-10-19T12:58:17;14.10;99.90
45108;DHT22;30869;51.188;6.556;2022-10-19T13:00:59;14.30;99.90
45108;DHT22;30869;51.188;6.556;2022-10-19T13:03:40;14.30;99.90
45108;DHT22;30869;51.188;6.556;2022-10-19T13:06:14;14.40;99.90
45108;DHT22;30869;51.188;6.556;2022-10-19T13:11:13;14.10;99.90
45108;DHT22;30869;51.188;6.556;2022-10-19T13:32:34;14.20;99.90
45108;DHT22;30869;51.188;6.556;2022-10-19T13:35:34;14.30;99.90
45108;DHT22;30869;51.188;6.556;2022-10-19T13:38:19;14.30;99.90
45108;DHT22;30869;51.188;6.556;2022-10-19T13:46:09;14.00;99.90
45108;DHT22;30869;51.188;6.556;2022-10-19T13:57:40;14.00;99.90
45108;DHT22;30869;51.188;6.556;2022-10-19T14:05:56;13.80;99.90
45108;DHT22;30869;51.188;6.556;2022-10-19T14:11:16;13.90;99.90
45108;DHT22;30869;51.188;6.556;2022-10-19T14:13:42;14.00;99.90
45108;DHT22;30869;51.188;6.556;2022-10-19T14:16:21;14.00;99.90
45108;DHT22;30869;51.188;6.556;2022-10-19T14:18:54;13.90;99.90
45108;DHT22;30869;51.188;6.556;2022-10-19T14:21:31;13.90;99.90
45108;DHT22;30869;51.188;6.556;2022-10-19T14:23:57;13.80;99.90
45108;DHT22;30869;51.188;6.556;2022-10-19T14:26:28;13.90;99.90
45108;DHT22;30869;51.188;6.556;2022-10-19T14:28:58;14.00;99.90
45108;DHT22;30869;51.188;6.556;2022-10-19T14:31:33;14.10;99.90
45108;DHT22;30869;51.188;6.556;2022-10-19T14:34:15;13.80;99.90
45108;DHT22;30869;51.188;6.556;2022-10-19T14:36:46;14.00;99.90
45108;DHT22;30869;51.188;6.556;2022-10-19T14:39:31;14.00;99.90
45108;DHT22;30869;51.188;6.556;2022-10-19T14:42:07;14.00;99.90
45108;DHT22;30869;51.188;6.556;2022-10-19T14:44:41;14.00;99.90
45108;DHT22;30869;51.188;6.556;2022-10-19T14:47:21;14.10;99.90
45108;DHT22;30869;51.188;6.556;2022-10-19T14:49:48;14.10;99.90
45108;DHT22;30869;51.188;6.556;2022-10-19T14:54:56;14.40;99.90
45108;DHT22;30869;51.188;6.556;2022-10-19T14:57:29;14.30;99.90
45108;DHT22;30869;51.188;6.556;2022-10-19T15:00:02;14.20;99.90
45108;DHT22;30869;51.188;6.556;2022-10-19T15:02:38;14.10;99.90
45108;DHT22;30869;51.188;6.556;2022-10-19T15:05:32;14.00;99.90
45108;DHT22;30869;51.188;6.556;2022-10-19T16:24:59;13.00;99.90
45108;DHT22;30869;51.188;6.556;2022-10-19T16:35:08;12.90;99.90
45108;DHT22;30869;51.188;6.556;2022-10-19T16:37:35;12.90;99.90
45108;DHT22;30869;51.188;6.556;2022-10-19T16:40:04;12.90;99.90
45108;DHT22;30869;51.188;6.556;2022-10-19T16:42:32;12.90;99.90
45108;DHT22;30869;51.188;6.556;2022-10-19T16:45:03;12.90;99.90
45108;DHT22;30869;51.188;6.556;2022-10-19T16:47:30;12.90;99.90
45108;DHT22;30869;51.188;6.556;2022-10-19T16:50:32;12.80;99.90
45108;DHT22;30869;51.188;6.556;2022-10-19T17:04:12;12.90;99.90
45108;DHT22;30869;51.188;6.556;2022-10-19T17:06:49;12.80;99.90
45108;DHT22;30869;51.188;6.556;2022-10-19T17:09:46;12.80;99.90
45108;DHT22;30869;51.188;6.556;2022-10-19T17:12:40;12.80;99.90
45108;DHT22;30869;51.188;6.556;2022-10-19T17:15:06;12.70;99.90
45108;DHT22;30869;51.188;6.556;2022-10-19T17:18:04;12.80;99.90
45108;DHT22;30869;51.188;6.556;2022-10-19T17:21:17;12.80;99.90
45108;DHT22;30869;51.188;6.556;2022-10-19T17:30:24;12.80;99.90
45108;DHT22;30869;51.188;6.556;2022-10-19T17:34:09;12.80;99.90
45108;DHT22;30869;51.188;6.556;2022-10-19T17:42:22;12.80;99.90
45108;DHT22;30869;51.188;6.556;2022-10-19T17:47:41;12.80;99.90
45108;DHT22;30869;51.188;6.556;2022-10-19T17:50:16;12.90;99.90
45108;DHT22;30869;51.188;6.556;2022-10-19T17:52:42;12.80;99.90
45108;DHT22;30869;51.188;6.556;2022-10-19T17:55:46;12.70;99.90
45108;DHT22;30869;51.188;6.556;2022-10-19T17:58:21;12.60;99.90
45108;DHT22;30869;51.188;6.556;2022-10-19T18:01:20;12.50;99.90
45108;DHT22;30869;51.188;6.556;2022-10-19T18:04:00;12.60;99.90
45108;DHT22;30869;51.188;6.556;2022-10-19T18:06:49;12.60;99.90
45108;DHT22;30869;51.188;6.556;2022-10-19T18:09:27;12.60;99.90
45108;DHT22;30869;51.188;6.556;2022-10-19T19:52:51;12.10;99.90
45108;DHT22;30869;51.188;6.556;2022-10-19T19:55:33;12.20;99.90
45108;DHT22;30869;51.188;6.556;2022-10-19T19:59:09;12.10;99.90
45108;DHT22;30869;51.188;6.556;2022-10-19T20:08:20;12.10;99.90
45108;DHT22;30869;51.188;6.556;2022-10-19T20:11:29;12.10;99.90
45108;DHT22;30869;51.188;6.556;2022-10-19T20:14:38;12.10;99.90
45108;DHT22;30869;51.188;6.556;2022-10-19T20:17:52;12.10;99.90
45108;DHT22;30869;51.188;6.556;2022-10-19T20:23:45;12.10;99.90
45108;DHT22;30869;51.188;6.556;2022-10-19T20:29:58;12.10;99.90
45108;DHT22;30869;51.188;6.556;2022-10-19T20:32:56;11.80;99.90
45108;DHT22;30869;51.188;6.556;2022-10-19T20:39:54;12.00;99.90
45108;DHT22;30869;51.188;6.556;2022-10-19T20:42:43;11.90;99.90
45108;DHT22;30869;51.188;6.556;2022-10-19T20:45:40;12.00;99.90
45108;DHT22;30869;51.188;6.556;2022-10-19T20:49:08;11.90;99.90
45108;DHT22;30869;51.188;6.556;2022-10-19T20:51:45;11.90;99.90
45108;DHT22;30869;51.188;6.556;2022-10-19T20:54:36;11.70;99.90
45108;DHT22;30869;51.188;6.556;2022-10-19T20:57:25;11.70;99.90
45108;DHT22;30869;51.188;6.556;2022-10-19T21:00:41;11.60;99.90
45108;DHT22;30869;51.188;6.556;2022-10-19T21:03:38;11.40;99.90
45108;DHT22;30869;51.188;6.556;2022-10-19T21:14:20;11.50;99.90
45108;DHT22;30869;51.188;6.556;2022-10-19T21:16:33;11.60;99.90
45108;DHT22;30869;51.188;6.556;2022-10-19T21:19:27;11.50;99.90
45108;DHT22;30869;51.188;6.556;2022-10-19T21:22:43;11.60;99.90
45108;DHT22;30869;51.188;6.556;2022-10-19T21:26:04;11.80;99.90
45108;DHT22;30869;51.188;6.556;2022-10-19T21:28:48;11.70;99.90
45108;DHT22;30869;51.188;6.556;2022-10-19T21:34:41;11.80;99.90
45108;DHT22;30869;51.188;6.556;2022-10-19T21:40:35;11.50;99.90
45108;DHT22;30869;51.188;6.556;2022-10-19T21:47:13;11.60;99.90
45108;DHT22;30869;51.188;6.556;2022-10-19T21:54:24;11.60;99.90
45108;DHT22;30869;51.188;6.556;2022-10-19T23:15:40;11.70;99.90
45108;DHT22;30869;51.188;6.556;2022-10-19T23:59:13;11.80;99.90
